SSEC Globe Logo

Space Science and Engineering Center

Regional Terminal Forecasts

KMSN 231120Z 2312/2412 34004KT P6SM SCT050 SCT120 FM240200
     00000KT P6SM BKN120=
KMKE 231120Z 2312/2418 34006KT P6SM BKN120 FM231800 04006KT
     P6SM SCT140 FM240000 06006KT P6SM BKN150 FM241400
     02007KT 6SM BR SCT150=
TAF KGRB 230520Z 2306/2406 36005KT P6SM BKN150 FM231400
     03008KT P6SM SCT040 BKN150 FM232200 07006KT P6SM
     BKN150=
KAUW 230520Z 2306/2406 10005KT P6SM BKN250 FM231400 02004KT
     P6SM SCT040 SCT120 BKN250=
KEAU 231123Z 2312/2412 00000KT P6SM FEW200 TEMPO 2312/2313
     6SM BR FM231500 15004KT P6SM FEW200=
KLSE 230525Z 2306/2406 VRB03KT P6SM SCT250 FM230900 VRB03KT
     P6SM VCFG SCT003 FM231200 VRB03KT P6SM SCT250=
KDBQ 231120Z 2312/2412 VRB03KT P6SM BKN080 FM231700 33005KT
     P6SM SCT035 BKN120 FM232000 VRB03KT P6SM SCT100=
TAF KRFD 231122Z 2312/2412 35006KT P6SM BKN070 FM231400
     35008KT P6SM BKN070 FM240100 VRB03KT P6SM SCT250=
KORD 231122Z 2312/2418 32005KT P6SM SCT040 BKN080 FM231400
     35009KT P6SM BKN060 FM232200 04009KT P6SM BKN250
     FM240500 32004KT P6SM SCT250 FM241500 03007KT P6SM
     SCT150=